ADDS TAF Data INFO
IDs: Format: Raw Decoded Include METARs

Data at: 1748 UTC 15 Dec 2017

KFMY 151735Z 1518/1618 24007KT P6SM SCT040 SCT250
  FM160000 VRB03KT P6SM FEW025 SCT250
  FM160600 00000KT 6SM BR SCT250
  FM161300 06006KT P6SM FEW035 SCT250